sensor_id;sensor_type;location;lat;lon;timestamp;temperature;humidity
14359;DHT22;7263;49.418;11.064;2023-04-15T00:02:14;6.10;99.90
14359;DHT22;7263;49.418;11.064;2023-04-15T00:04:45;6.10;99.90
14359;DHT22;7263;49.418;11.064;2023-04-15T00:07:17;6.10;99.90
14359;DHT22;7263;49.418;11.064;2023-04-15T00:09:43;6.10;99.90
14359;DHT22;7263;49.418;11.064;2023-04-15T00:12:21;6.10;99.90
14359;DHT22;7263;49.418;11.064;2023-04-15T00:14:48;6.10;99.90
14359;DHT22;7263;49.418;11.064;2023-04-15T00:17:24;6.00;99.90
14359;DHT22;7263;49.418;11.064;2023-04-15T00:19:54;6.00;99.90
14359;DHT22;7263;49.418;11.064;2023-04-15T00:22:25;6.00;99.90
14359;DHT22;7263;49.418;11.064;2023-04-15T00:24:52;6.00;99.90
14359;DHT22;7263;49.418;11.064;2023-04-15T00:27:25;6.00;99.90
14359;DHT22;7263;49.418;11.064;2023-04-15T00:29:52;6.00;99.90
14359;DHT22;7263;49.418;11.064;2023-04-15T00:32:28;6.00;99.90
14359;DHT22;7263;49.418;11.064;2023-04-15T00:34:54;6.00;99.90
14359;DHT22;7263;49.418;11.064;2023-04-15T00:37:32;6.00;99.90
14359;DHT22;7263;49.418;11.064;2023-04-15T00:40:12;6.10;99.90
14359;DHT22;7263;49.418;11.064;2023-04-15T00:42:46;6.10;99.90
14359;DHT22;7263;49.418;11.064;2023-04-15T00:45:13;6.00;99.90
14359;DHT22;7263;49.418;11.064;2023-04-15T00:47:43;6.10;99.90
14359;DHT22;7263;49.418;11.064;2023-04-15T00:50:13;6.10;99.90
14359;DHT22;7263;49.418;11.064;2023-04-15T00:52:51;6.10;99.90
14359;DHT22;7263;49.418;11.064;2023-04-15T00:55:18;6.10;99.90
14359;DHT22;7263;49.418;11.064;2023-04-15T00:57:50;6.10;99.90
14359;DHT22;7263;49.418;11.064;2023-04-15T01:00:23;6.00;99.90
14359;DHT22;7263;49.418;11.064;2023-04-15T01:02:51;6.00;99.90
14359;DHT22;7263;49.418;11.064;2023-04-15T01:05:25;6.00;99.90
14359;DHT22;7263;49.418;11.064;2023-04-15T01:07:54;6.00;99.90
14359;DHT22;7263;49.418;11.064;2023-04-15T01:10:27;6.00;99.90
14359;DHT22;7263;49.418;11.064;2023-04-15T01:13:02;6.00;99.90
14359;DHT22;7263;49.418;11.064;2023-04-15T01:15:31;6.00;99.90
14359;DHT22;7263;49.418;11.064;2023-04-15T01:18:00;6.00;99.90
14359;DHT22;7263;49.418;11.064;2023-04-15T01:20:31;6.00;99.90
14359;DHT22;7263;49.418;11.064;2023-04-15T01:22:59;6.00;99.90
14359;DHT22;7263;49.418;11.064;2023-04-15T01:25:34;6.00;99.90
14359;DHT22;7263;49.418;11.064;2023-04-15T01:28:02;6.00;99.90
14359;DHT22;7263;49.418;11.064;2023-04-15T01:30:35;6.00;99.90
14359;DHT22;7263;49.418;11.064;2023-04-15T01:33:02;6.00;99.90
14359;DHT22;7263;49.418;11.064;2023-04-15T01:35:34;6.00;99.90
14359;DHT22;7263;49.418;11.064;2023-04-15T01:38:05;6.00;99.90
14359;DHT22;7263;49.418;11.064;2023-04-15T01:40:34;6.00;99.90
14359;DHT22;7263;49.418;11.064;2023-04-15T01:43:09;6.00;99.90
14359;DHT22;7263;49.418;11.064;2023-04-15T01:45:49;6.00;99.90
14359;DHT22;7263;49.418;11.064;2023-04-15T01:48:28;6.30;99.90
14359;DHT22;7263;49.418;11.064;2023-04-15T01:50:58;6.00;99.90
14359;DHT22;7263;49.418;11.064;2023-04-15T01:53:28;6.00;99.90
14359;DHT22;7263;49.418;11.064;2023-04-15T01:55:58;6.00;99.90
14359;DHT22;7263;49.418;11.064;2023-04-15T01:58:30;6.00;99.90
14359;DHT22;7263;49.418;11.064;2023-04-15T02:00:59;6.00;99.90
14359;DHT22;7263;49.418;11.064;2023-04-15T02:03:38;6.00;99.90
14359;DHT22;7263;49.418;11.064;2023-04-15T02:06:05;5.90;99.90
14359;DHT22;7263;49.418;11.064;2023-04-15T02:08:35;5.90;99.90
14359;DHT22;7263;49.418;11.064;2023-04-15T02:11:09;5.90;99.90
14359;DHT22;7263;49.418;11.064;2023-04-15T02:13:35;5.90;99.90
14359;DHT22;7263;49.418;11.064;2023-04-15T02:16:14;5.90;99.90
14359;DHT22;7263;49.418;11.064;2023-04-15T02:18:45;5.90;99.90
14359;DHT22;7263;49.418;11.064;2023-04-15T02:21:14;5.90;99.90
14359;DHT22;7263;49.418;11.064;2023-04-15T02:23:41;5.90;99.90
14359;DHT22;7263;49.418;11.064;2023-04-15T02:26:16;5.90;99.90
14359;DHT22;7263;49.418;11.064;2023-04-15T02:28:49;5.90;99.90
14359;DHT22;7263;49.418;11.064;2023-04-15T02:31:22;5.90;99.90
14359;DHT22;7263;49.418;11.064;2023-04-15T02:34:01;5.90;99.90
14359;DHT22;7263;49.418;11.064;2023-04-15T02:36:32;5.90;99.90
14359;DHT22;7263;49.418;11.064;2023-04-15T02:38:59;5.80;99.90
14359;DHT22;7263;49.418;11.064;2023-04-15T02:41:31;5.80;99.90
14359;DHT22;7263;49.418;11.064;2023-04-15T02:44:00;5.80;99.90
14359;DHT22;7263;49.418;11.064;2023-04-15T02:46:27;5.80;99.90
14359;DHT22;7263;49.418;11.064;2023-04-15T02:48:56;5.80;99.90
14359;DHT22;7263;49.418;11.064;2023-04-15T02:51:29;5.80;99.90
14359;DHT22;7263;49.418;11.064;2023-04-15T02:53:55;5.80;99.90
14359;DHT22;7263;49.418;11.064;2023-04-15T02:56:27;6.20;99.90
14359;DHT22;7263;49.418;11.064;2023-04-15T02:58:58;5.80;99.90
14359;DHT22;7263;49.418;11.064;2023-04-15T03:01:25;5.80;99.90
14359;DHT22;7263;49.418;11.064;2023-04-15T03:03:54;5.70;99.90
14359;DHT22;7263;49.418;11.064;2023-04-15T03:06:27;5.80;99.90
14359;DHT22;7263;49.418;11.064;2023-04-15T03:08:57;5.80;99.90
14359;DHT22;7263;49.418;11.064;2023-04-15T03:11:28;5.80;99.90
14359;DHT22;7263;49.418;11.064;2023-04-15T03:13:56;5.80;99.90
14359;DHT22;7263;49.418;11.064;2023-04-15T03:16:23;5.90;99.90
14359;DHT22;7263;49.418;11.064;2023-04-15T03:18:53;5.80;99.90
14359;DHT22;7263;49.418;11.064;2023-04-15T03:21:31;2.50;99.90
14359;DHT22;7263;49.418;11.064;2023-04-15T03:23:58;5.90;99.90
14359;DHT22;7263;49.418;11.064;2023-04-15T03:26:26;5.90;99.90
14359;DHT22;7263;49.418;11.064;2023-04-15T03:28:55;5.90;99.90
14359;DHT22;7263;49.418;11.064;2023-04-15T03:31:22;5.90;99.90
14359;DHT22;7263;49.418;11.064;2023-04-15T03:33:49;5.90;99.90
14359;DHT22;7263;49.418;11.064;2023-04-15T03:36:19;5.90;99.90
14359;DHT22;7263;49.418;11.064;2023-04-15T03:38:45;5.90;99.90
14359;DHT22;7263;49.418;11.064;2023-04-15T03:41:21;5.90;99.90
14359;DHT22;7263;49.418;11.064;2023-04-15T03:43:51;5.80;99.90
14359;DHT22;7263;49.418;11.064;2023-04-15T03:46:19;5.80;99.90
14359;DHT22;7263;49.418;11.064;2023-04-15T03:48:47;5.80;99.90
14359;DHT22;7263;49.418;11.064;2023-04-15T03:51:23;5.90;99.90
14359;DHT22;7263;49.418;11.064;2023-04-15T03:54:00;5.80;99.90
14359;DHT22;7263;49.418;11.064;2023-04-15T03:56:33;5.80;99.90
14359;DHT22;7263;49.418;11.064;2023-04-15T03:58:59;5.80;99.90
14359;DHT22;7263;49.418;11.064;2023-04-15T04:01:31;5.80;99.90
14359;DHT22;7263;49.418;11.064;2023-04-15T04:04:00;5.80;99.90
14359;DHT22;7263;49.418;11.064;2023-04-15T04:06:27;5.80;99.90
14359;DHT22;7263;49.418;11.064;2023-04-15T04:08:57;5.80;99.90
14359;DHT22;7263;49.418;11.064;2023-04-15T04:11:26;5.80;99.90
14359;DHT22;7263;49.418;11.064;2023-04-15T04:14:08;5.80;99.90
14359;DHT22;7263;49.418;11.064;2023-04-15T04:16:43;5.80;99.90
14359;DHT22;7263;49.418;11.064;2023-04-15T04:19:10;5.90;99.90
14359;DHT22;7263;49.418;11.064;2023-04-15T04:21:44;5.90;99.90
14359;DHT22;7263;49.418;11.064;2023-04-15T04:24:11;5.90;99.90
14359;DHT22;7263;49.418;11.064;2023-04-15T04:26:41;5.90;99.90
14359;DHT22;7263;49.418;11.064;2023-04-15T04:29:10;5.90;99.90
14359;DHT22;7263;49.418;11.064;2023-04-15T04:31:43;5.90;99.90
14359;DHT22;7263;49.418;11.064;2023-04-15T04:34:10;5.90;99.90
14359;DHT22;7263;49.418;11.064;2023-04-15T04:36:40;5.90;99.90
14359;DHT22;7263;49.418;11.064;2023-04-15T04:39:07;5.90;99.90
14359;DHT22;7263;49.418;11.064;2023-04-15T04:41:36;5.90;99.90
14359;DHT22;7263;49.418;11.064;2023-04-15T04:44:03;6.00;99.90
14359;DHT22;7263;49.418;11.064;2023-04-15T04:46:30;6.00;99.90
14359;DHT22;7263;49.418;11.064;2023-04-15T04:48:58;6.00;99.90
14359;DHT22;7263;49.418;11.064;2023-04-15T04:51:25;6.00;99.90
14359;DHT22;7263;49.418;11.064;2023-04-15T04:54:09;6.00;99.90
14359;DHT22;7263;49.418;11.064;2023-04-15T04:56:39;6.00;99.90
14359;DHT22;7263;49.418;11.064;2023-04-15T04:59:06;6.00;99.90
14359;DHT22;7263;49.418;11.064;2023-04-15T05:01:34;6.00;99.90
14359;DHT22;7263;49.418;11.064;2023-04-15T05:04:03;6.00;99.90
14359;DHT22;7263;49.418;11.064;2023-04-15T05:06:32;6.10;99.90
14359;DHT22;7263;49.418;11.064;2023-04-15T05:09:09;6.40;99.90
14359;DHT22;7263;49.418;11.064;2023-04-15T05:11:55;6.10;99.90
14359;DHT22;7263;49.418;11.064;2023-04-15T05:14:24;6.20;99.90
14359;DHT22;7263;49.418;11.064;2023-04-15T05:16:51;6.20;99.90
14359;DHT22;7263;49.418;11.064;2023-04-15T05:19:27;6.20;99.90
14359;DHT22;7263;49.418;11.064;2023-04-15T05:21:54;6.30;99.90
14359;DHT22;7263;49.418;11.064;2023-04-15T05:24:21;6.30;99.90
14359;DHT22;7263;49.418;11.064;2023-04-15T05:26:51;6.40;99.90
14359;DHT22;7263;49.418;11.064;2023-04-15T05:29:20;6.40;99.90
14359;DHT22;7263;49.418;11.064;2023-04-15T05:31:47;6.50;99.90
14359;DHT22;7263;49.418;11.064;2023-04-15T05:34:14;6.60;99.90
14359;DHT22;7263;49.418;11.064;2023-04-15T05:36:48;6.60;99.90
14359;DHT22;7263;49.418;11.064;2023-04-15T05:39:15;6.60;99.90
14359;DHT22;7263;49.418;11.064;2023-04-15T05:41:41;6.70;99.90
14359;DHT22;7263;49.418;11.064;2023-04-15T05:44:08;6.80;99.90
14359;DHT22;7263;49.418;11.064;2023-04-15T05:46:38;6.80;99.90
14359;DHT22;7263;49.418;11.064;2023-04-15T05:49:13;6.80;99.90
14359;DHT22;7263;49.418;11.064;2023-04-15T05:51:42;6.90;99.90
14359;DHT22;7263;49.418;11.064;2023-04-15T05:54:12;6.90;99.90
14359;DHT22;7263;49.418;11.064;2023-04-15T05:56:42;7.00;99.90
14359;DHT22;7263;49.418;11.064;2023-04-15T05:59:11;7.00;99.90
14359;DHT22;7263;49.418;11.064;2023-04-15T06:01:38;7.10;99.90
14359;DHT22;7263;49.418;11.064;2023-04-15T06:04:08;7.10;99.90
14359;DHT22;7263;49.418;11.064;2023-04-15T06:06:39;7.20;99.90
14359;DHT22;7263;49.418;11.064;2023-04-15T06:09:08;7.20;99.90
14359;DHT22;7263;49.418;11.064;2023-04-15T06:11:40;7.20;99.90
14359;DHT22;7263;49.418;11.064;2023-04-15T06:14:08;7.30;99.90
14359;DHT22;7263;49.418;11.064;2023-04-15T06:16:43;7.30;99.90
14359;DHT22;7263;49.418;11.064;2023-04-15T06:19:14;7.30;99.90
14359;DHT22;7263;49.418;11.064;2023-04-15T06:21:45;7.20;99.90
14359;DHT22;7263;49.418;11.064;2023-04-15T06:24:12;7.20;99.90
14359;DHT22;7263;49.418;11.064;2023-04-15T06:26:43;7.20;99.90
14359;DHT22;7263;49.418;11.064;2023-04-15T06:29:16;7.20;99.90
14359;DHT22;7263;49.418;11.064;2023-04-15T06:31:43;7.20;99.90
14359;DHT22;7263;49.418;11.064;2023-04-15T06:34:10;7.20;99.90
14359;DHT22;7263;49.418;11.064;2023-04-15T06:36:37;7.30;99.90
14359;DHT22;7263;49.418;11.064;2023-04-15T06:39:04;7.40;99.90
14359;DHT22;7263;49.418;11.064;2023-04-15T06:41:33;7.50;99.90
14359;DHT22;7263;49.418;11.064;2023-04-15T06:44:05;7.50;99.90
14359;DHT22;7263;49.418;11.064;2023-04-15T06:46:31;7.60;99.90
14359;DHT22;7263;49.418;11.064;2023-04-15T06:48:58;7.60;99.90
14359;DHT22;7263;49.418;11.064;2023-04-15T06:51:27;7.70;99.90
14359;DHT22;7263;49.418;11.064;2023-04-15T06:53:54;8.00;99.90
14359;DHT22;7263;49.418;11.064;2023-04-15T06:56:26;7.80;99.90
14359;DHT22;7263;49.418;11.064;2023-04-15T06:58:55;7.90;99.90
14359;DHT22;7263;49.418;11.064;2023-04-15T07:01:26;8.00;99.90
14359;DHT22;7263;49.418;11.064;2023-04-15T07:03:53;8.00;99.90
14359;DHT22;7263;49.418;11.064;2023-04-15T07:06:20;8.00;99.90
14359;DHT22;7263;49.418;11.064;2023-04-15T07:08:47;8.00;99.90
14359;DHT22;7263;49.418;11.064;2023-04-15T07:11:17;8.00;99.90
14359;DHT22;7263;49.418;11.064;2023-04-15T07:13:46;8.00;99.90
14359;DHT22;7263;49.418;11.064;2023-04-15T07:16:13;8.00;99.90
14359;DHT22;7263;49.418;11.064;2023-04-15T07:18:41;7.90;99.90
14359;DHT22;7263;49.418;11.064;2023-04-15T07:21:11;8.10;99.90
14359;DHT22;7263;49.418;11.064;2023-04-15T07:23:44;8.20;99.90
14359;DHT22;7263;49.418;11.064;2023-04-15T07:26:10;8.30;99.90
14359;DHT22;7263;49.418;11.064;2023-04-15T07:28:44;8.40;99.90
14359;DHT22;7263;49.418;11.064;2023-04-15T07:31:21;8.50;99.90
14359;DHT22;7263;49.418;11.064;2023-04-15T07:33:55;8.70;99.90
14359;DHT22;7263;49.418;11.064;2023-04-15T07:36:24;8.80;99.90
14359;DHT22;7263;49.418;11.064;2023-04-15T07:39:00;8.90;99.90
14359;DHT22;7263;49.418;11.064;2023-04-15T07:41:38;9.10;99.90
14359;DHT22;7263;49.418;11.064;2023-04-15T07:44:16;9.10;99.90
14359;DHT22;7263;49.418;11.064;2023-04-15T07:46:43;9.30;99.90
14359;DHT22;7263;49.418;11.064;2023-04-15T07:49:15;9.30;99.90
14359;DHT22;7263;49.418;11.064;2023-04-15T07:51:48;9.20;99.90
14359;DHT22;7263;49.418;11.064;2023-04-15T07:54:24;9.00;99.90
14359;DHT22;7263;49.418;11.064;2023-04-15T07:56:54;8.80;99.90
14359;DHT22;7263;49.418;11.064;2023-04-15T08:11:35;8.70;99.90
14359;DHT22;7263;49.418;11.064;2023-04-15T08:14:02;8.70;99.90
14359;DHT22;7263;49.418;11.064;2023-04-15T08:16:36;8.60;99.90
14359;DHT22;7263;49.418;11.064;2023-04-15T08:19:06;8.50;99.90
14359;DHT22;7263;49.418;11.064;2023-04-15T08:21:35;8.50;99.90
14359;DHT22;7263;49.418;11.064;2023-04-15T08:24:02;8.40;99.90
14359;DHT22;7263;49.418;11.064;2023-04-15T08:26:36;8.40;99.90
14359;DHT22;7263;49.418;11.064;2023-04-15T08:29:05;8.30;99.90
14359;DHT22;7263;49.418;11.064;2023-04-15T08:31:34;8.30;99.90
14359;DHT22;7263;49.418;11.064;2023-04-15T08:34:01;8.20;99.90
14359;DHT22;7263;49.418;11.064;2023-04-15T08:36:28;8.20;99.90
14359;DHT22;7263;49.418;11.064;2023-04-15T08:38:58;8.10;99.90
14359;DHT22;7263;49.418;11.064;2023-04-15T08:41:26;8.10;99.90
14359;DHT22;7263;49.418;11.064;2023-04-15T08:44:04;8.00;99.90
14359;DHT22;7263;49.418;11.064;2023-04-15T08:46:35;8.00;99.90
14359;DHT22;7263;49.418;11.064;2023-04-15T08:49:03;7.70;99.90
14359;DHT22;7263;49.418;11.064;2023-04-15T08:51:33;7.60;99.90
14359;DHT22;7263;49.418;11.064;2023-04-15T08:54:10;7.60;99.90
14359;DHT22;7263;49.418;11.064;2023-04-15T08:56:38;7.50;99.90
14359;DHT22;7263;49.418;11.064;2023-04-15T08:59:06;7.50;99.90
14359;DHT22;7263;49.418;11.064;2023-04-15T09:01:44;7.50;99.90
14359;DHT22;7263;49.418;11.064;2023-04-15T09:04:11;7.50;99.90
14359;DHT22;7263;49.418;11.064;2023-04-15T09:06:38;7.60;99.90
14359;DHT22;7263;49.418;11.064;2023-04-15T09:09:08;7.70;99.90
14359;DHT22;7263;49.418;11.064;2023-04-15T09:11:41;7.70;99.90
14359;DHT22;7263;49.418;11.064;2023-04-15T09:14:19;7.80;99.90
14359;DHT22;7263;49.418;11.064;2023-04-15T09:17:05;7.90;99.90
14359;DHT22;7263;49.418;11.064;2023-04-15T09:19:38;8.00;99.90
14359;DHT22;7263;49.418;11.064;2023-04-15T09:22:08;8.30;99.90
14359;DHT22;7263;49.418;11.064;2023-04-15T09:24:37;8.40;99.90
14359;DHT22;7263;49.418;11.064;2023-04-15T09:27:04;8.40;99.90
14359;DHT22;7263;49.418;11.064;2023-04-15T09:29:51;8.50;99.90
14359;DHT22;7263;49.418;11.064;2023-04-15T09:32:19;8.70;99.90
14359;DHT22;7263;49.418;11.064;2023-04-15T09:34:48;8.90;99.90
14359;DHT22;7263;49.418;11.064;2023-04-15T09:37:14;8.90;99.90
14359;DHT22;7263;49.418;11.064;2023-04-15T09:39:54;9.20;99.90
14359;DHT22;7263;49.418;11.064;2023-04-15T09:42:21;8.90;99.90
14359;DHT22;7263;49.418;11.064;2023-04-15T09:44:51;8.90;99.90
14359;DHT22;7263;49.418;11.064;2023-04-15T09:47:36;8.90;99.90
14359;DHT22;7263;49.418;11.064;2023-04-15T09:50:03;8.70;99.90
14359;DHT22;7263;49.418;11.064;2023-04-15T09:52:40;8.60;99.90
14359;DHT22;7263;49.418;11.064;2023-04-15T09:55:10;8.50;99.90
14359;DHT22;7263;49.418;11.064;2023-04-15T09:57:53;8.50;99.90
14359;DHT22;7263;49.418;11.064;2023-04-15T10:00:24;8.50;99.90
14359;DHT22;7263;49.418;11.064;2023-04-15T10:03:00;8.60;99.90
14359;DHT22;7263;49.418;11.064;2023-04-15T10:05:27;8.50;99.90
14359;DHT22;7263;49.418;11.064;2023-04-15T10:07:54;8.40;99.90
14359;DHT22;7263;49.418;11.064;2023-04-15T10:10:29;8.30;99.90
14359;DHT22;7263;49.418;11.064;2023-04-15T10:13:00;8.10;99.90
14359;DHT22;7263;49.418;11.064;2023-04-15T10:15:32;8.10;99.90
14359;DHT22;7263;49.418;11.064;2023-04-15T10:17:59;7.90;99.90
14359;DHT22;7263;49.418;11.064;2023-04-15T10:20:30;7.80;99.90
14359;DHT22;7263;49.418;11.064;2023-04-15T10:22:57;7.70;99.90
14359;DHT22;7263;49.418;11.064;2023-04-15T10:25:25;7.60;99.90
14359;DHT22;7263;49.418;11.064;2023-04-15T10:27:53;7.60;99.90
14359;DHT22;7263;49.418;11.064;2023-04-15T10:30:21;7.50;99.90
14359;DHT22;7263;49.418;11.064;2023-04-15T10:32:50;7.40;99.90
14359;DHT22;7263;49.418;11.064;2023-04-15T10:35:18;7.40;99.90
14359;DHT22;7263;49.418;11.064;2023-04-15T10:37:46;7.30;99.90
14359;DHT22;7263;49.418;11.064;2023-04-15T10:40:29;7.20;99.90
14359;DHT22;7263;49.418;11.064;2023-04-15T10:42:58;7.20;99.90
14359;DHT22;7263;49.418;11.064;2023-04-15T10:45:36;7.00;99.90
14359;DHT22;7263;49.418;11.064;2023-04-15T10:48:07;7.00;99.90
14359;DHT22;7263;49.418;11.064;2023-04-15T10:50:36;7.00;99.90
14359;DHT22;7263;49.418;11.064;2023-04-15T10:53:25;7.00;99.90
14359;DHT22;7263;49.418;11.064;2023-04-15T10:56:06;7.10;99.90
14359;DHT22;7263;49.418;11.064;2023-04-15T10:58:40;7.10;99.90
14359;DHT22;7263;49.418;11.064;2023-04-15T11:01:10;7.10;99.90
14359;DHT22;7263;49.418;11.064;2023-04-15T11:03:44;7.10;99.90
14359;DHT22;7263;49.418;11.064;2023-04-15T11:06:13;7.20;99.90
14359;DHT22;7263;49.418;11.064;2023-04-15T11:08:56;7.40;99.90
14359;DHT22;7263;49.418;11.064;2023-04-15T11:16:52;7.70;99.90
14359;DHT22;7263;49.418;11.064;2023-04-15T11:19:20;7.80;99.90
14359;DHT22;7263;49.418;11.064;2023-04-15T11:21:47;7.80;99.90
14359;DHT22;7263;49.418;11.064;2023-04-15T11:24:28;7.90;99.90
14359;DHT22;7263;49.418;11.064;2023-04-15T11:26:56;7.90;99.90
14359;DHT22;7263;49.418;11.064;2023-04-15T11:29:28;8.00;99.90
14359;DHT22;7263;49.418;11.064;2023-04-15T11:32:03;8.10;99.90
14359;DHT22;7263;49.418;11.064;2023-04-15T11:34:34;8.10;99.90
14359;DHT22;7263;49.418;11.064;2023-04-15T11:37:07;8.10;99.90
14359;DHT22;7263;49.418;11.064;2023-04-15T11:39:37;8.10;99.90
14359;DHT22;7263;49.418;11.064;2023-04-15T11:42:15;8.10;99.90
14359;DHT22;7263;49.418;11.064;2023-04-15T11:44:45;7.90;99.90
14359;DHT22;7263;49.418;11.064;2023-04-15T11:47:21;7.90;99.90
14359;DHT22;7263;49.418;11.064;2023-04-15T11:50:13;7.80;99.90
14359;DHT22;7263;49.418;11.064;2023-04-15T11:52:41;7.70;99.90
14359;DHT22;7263;49.418;11.064;2023-04-15T11:55:18;7.80;99.90
14359;DHT22;7263;49.418;11.064;2023-04-15T11:58:04;7.70;99.90
14359;DHT22;7263;49.418;11.064;2023-04-15T12:00:32;7.90;99.90
14359;DHT22;7263;49.418;11.064;2023-04-15T12:03:14;8.10;99.90
14359;DHT22;7263;49.418;11.064;2023-04-15T12:06:06;7.90;99.90
14359;DHT22;7263;49.418;11.064;2023-04-15T12:08:55;8.00;99.90
14359;DHT22;7263;49.418;11.064;2023-04-15T12:11:40;8.10;99.90
14359;DHT22;7263;49.418;11.064;2023-04-15T12:14:25;8.30;99.90
14359;DHT22;7263;49.418;11.064;2023-04-15T12:17:00;8.40;99.90
14359;DHT22;7263;49.418;11.064;2023-04-15T12:19:34;8.60;99.90
14359;DHT22;7263;49.418;11.064;2023-04-15T12:22:05;8.60;99.90
14359;DHT22;7263;49.418;11.064;2023-04-15T12:24:37;8.50;99.90
14359;DHT22;7263;49.418;11.064;2023-04-15T12:27:05;8.50;99.90
14359;DHT22;7263;49.418;11.064;2023-04-15T12:29:43;8.40;99.90
14359;DHT22;7263;49.418;11.064;2023-04-15T12:32:12;8.40;99.90
14359;DHT22;7263;49.418;11.064;2023-04-15T12:34:49;8.30;99.90
14359;DHT22;7263;49.418;11.064;2023-04-15T12:37:18;8.30;99.90
14359;DHT22;7263;49.418;11.064;2023-04-15T12:39:59;8.30;99.90
14359;DHT22;7263;49.418;11.064;2023-04-15T12:42:28;8.30;99.90
14359;DHT22;7263;49.418;11.064;2023-04-15T12:44:55;8.30;99.90
14359;DHT22;7263;49.418;11.064;2023-04-15T12:47:25;8.30;99.90
14359;DHT22;7263;49.418;11.064;2023-04-15T12:49:51;8.30;99.90
14359;DHT22;7263;49.418;11.064;2023-04-15T12:52:22;8.30;99.90
14359;DHT22;7263;49.418;11.064;2023-04-15T12:54:55;8.20;99.90
14359;DHT22;7263;49.418;11.064;2023-04-15T12:57:25;8.30;99.90
14359;DHT22;7263;49.418;11.064;2023-04-15T12:59:54;8.30;99.90
14359;DHT22;7263;49.418;11.064;2023-04-15T13:02:21;8.30;99.90
14359;DHT22;7263;49.418;11.064;2023-04-15T13:04:53;8.40;99.90
14359;DHT22;7263;49.418;11.064;2023-04-15T13:07:21;8.40;99.90
14359;DHT22;7263;49.418;11.064;2023-04-15T13:09:48;8.40;99.90
14359;DHT22;7263;49.418;11.064;2023-04-15T13:12:17;8.50;99.90
14359;DHT22;7263;49.418;11.064;2023-04-15T13:14:44;8.50;99.90
14359;DHT22;7263;49.418;11.064;2023-04-15T13:17:13;8.60;99.90
14359;DHT22;7263;49.418;11.064;2023-04-15T13:19:41;8.60;99.90
14359;DHT22;7263;49.418;11.064;2023-04-15T13:22:08;8.70;99.90
14359;DHT22;7263;49.418;11.064;2023-04-15T13:24:37;8.70;99.90
14359;DHT22;7263;49.418;11.064;2023-04-15T13:27:05;8.80;99.90
14359;DHT22;7263;49.418;11.064;2023-04-15T13:29:32;8.80;99.90
14359;DHT22;7263;49.418;11.064;2023-04-15T13:32:02;8.70;99.90
14359;DHT22;7263;49.418;11.064;2023-04-15T13:34:31;8.70;99.90
14359;DHT22;7263;49.418;11.064;2023-04-15T13:37:08;8.70;99.90
14359;DHT22;7263;49.418;11.064;2023-04-15T13:39:45;8.60;99.90
14359;DHT22;7263;49.418;11.064;2023-04-15T13:42:12;8.80;99.90
14359;DHT22;7263;49.418;11.064;2023-04-15T13:44:42;8.70;99.90
14359;DHT22;7263;49.418;11.064;2023-04-15T13:47:09;8.80;99.90
14359;DHT22;7263;49.418;11.064;2023-04-15T13:49:36;8.90;99.90
14359;DHT22;7263;49.418;11.064;2023-04-15T13:52:02;8.90;99.90
14359;DHT22;7263;49.418;11.064;2023-04-15T13:54:29;8.90;99.90
14359;DHT22;7263;49.418;11.064;2023-04-15T13:57:12;8.90;99.90
14359;DHT22;7263;49.418;11.064;2023-04-15T13:59:42;8.90;99.90
14359;DHT22;7263;49.418;11.064;2023-04-15T14:02:09;8.80;99.90
14359;DHT22;7263;49.418;11.064;2023-04-15T14:04:39;8.80;99.90
14359;DHT22;7263;49.418;11.064;2023-04-15T14:07:05;8.80;99.90
14359;DHT22;7263;49.418;11.064;2023-04-15T14:12:17;8.70;99.90
14359;DHT22;7263;49.418;11.064;2023-04-15T14:14:48;8.70;99.90
14359;DHT22;7263;49.418;11.064;2023-04-15T14:17:18;8.70;99.90
14359;DHT22;7263;49.418;11.064;2023-04-15T14:19:53;8.70;99.90
14359;DHT22;7263;49.418;11.064;2023-04-15T14:22:24;8.70;99.90
14359;DHT22;7263;49.418;11.064;2023-04-15T14:27:29;8.70;99.90
14359;DHT22;7263;49.418;11.064;2023-04-15T14:29:56;8.70;99.90
14359;DHT22;7263;49.418;11.064;2023-04-15T14:32:24;8.70;99.90
14359;DHT22;7263;49.418;11.064;2023-04-15T14:34:53;8.60;99.90
14359;DHT22;7263;49.418;11.064;2023-04-15T14:37:29;8.60;99.90
14359;DHT22;7263;49.418;11.064;2023-04-15T14:39:56;8.60;99.90
14359;DHT22;7263;49.418;11.064;2023-04-15T14:42:38;8.60;99.90
14359;DHT22;7263;49.418;11.064;2023-04-15T14:45:08;8.60;99.90
14359;DHT22;7263;49.418;11.064;2023-04-15T14:47:35;8.60;99.90
14359;DHT22;7263;49.418;11.064;2023-04-15T14:50:07;8.50;99.90
14359;DHT22;7263;49.418;11.064;2023-04-15T14:52:34;8.50;99.90
14359;DHT22;7263;49.418;11.064;2023-04-15T14:55:10;8.40;99.90
14359;DHT22;7263;49.418;11.064;2023-04-15T14:57:59;8.30;99.90
14359;DHT22;7263;49.418;11.064;2023-04-15T15:00:35;8.30;99.90
14359;DHT22;7263;49.418;11.064;2023-04-15T15:03:10;8.20;99.90
14359;DHT22;7263;49.418;11.064;2023-04-15T15:05:48;8.30;99.90
14359;DHT22;7263;49.418;11.064;2023-04-15T15:08:19;8.30;99.90
14359;DHT22;7263;49.418;11.064;2023-04-15T15:10:49;8.30;99.90
14359;DHT22;7263;49.418;11.064;2023-04-15T15:13:22;8.30;99.90
14359;DHT22;7263;49.418;11.064;2023-04-15T15:15:49;8.30;99.90
14359;DHT22;7263;49.418;11.064;2023-04-15T15:18:18;8.30;99.90
14359;DHT22;7263;49.418;11.064;2023-04-15T15:20:51;8.40;99.90
14359;DHT22;7263;49.418;11.064;2023-04-15T15:23:24;8.40;99.90
14359;DHT22;7263;49.418;11.064;2023-04-15T15:26:00;8.30;99.90
14359;DHT22;7263;49.418;11.064;2023-04-15T15:28:28;8.20;99.90
14359;DHT22;7263;49.418;11.064;2023-04-15T15:33:24;8.30;99.90
14359;DHT22;7263;49.418;11.064;2023-04-15T15:35:50;8.30;99.90
14359;DHT22;7263;49.418;11.064;2023-04-15T15:38:23;8.30;99.90
14359;DHT22;7263;49.418;11.064;2023-04-15T15:40:59;8.60;99.90
14359;DHT22;7263;49.418;11.064;2023-04-15T15:43:40;8.20;99.90
14359;DHT22;7263;49.418;11.064;2023-04-15T15:46:10;8.20;99.90
14359;DHT22;7263;49.418;11.064;2023-04-15T15:48:37;8.10;99.90
14359;DHT22;7263;49.418;11.064;2023-04-15T15:51:04;8.00;99.90
14359;DHT22;7263;49.418;11.064;2023-04-15T15:53:37;7.90;99.90
14359;DHT22;7263;49.418;11.064;2023-04-15T15:56:04;7.80;99.90
14359;DHT22;7263;49.418;11.064;2023-04-15T15:58:32;7.70;99.90
14359;DHT22;7263;49.418;11.064;2023-04-15T16:00:59;7.70;99.90
14359;DHT22;7263;49.418;11.064;2023-04-15T16:03:28;7.70;99.90
14359;DHT22;7263;49.418;11.064;2023-04-15T16:06:02;7.60;99.90
14359;DHT22;7263;49.418;11.064;2023-04-15T16:08:32;7.50;99.90
14359;DHT22;7263;49.418;11.064;2023-04-15T16:11:01;7.50;99.90
14359;DHT22;7263;49.418;11.064;2023-04-15T16:13:35;7.50;99.90
14359;DHT22;7263;49.418;11.064;2023-04-15T16:16:04;7.50;99.90
14359;DHT22;7263;49.418;11.064;2023-04-15T16:21:18;7.40;99.90
14359;DHT22;7263;49.418;11.064;2023-04-15T16:23:45;7.40;99.90
14359;DHT22;7263;49.418;11.064;2023-04-15T16:26:12;7.40;99.90
14359;DHT22;7263;49.418;11.064;2023-04-15T16:28:40;7.40;99.90
14359;DHT22;7263;49.418;11.064;2023-04-15T16:31:07;7.40;99.90
14359;DHT22;7263;49.418;11.064;2023-04-15T16:33:39;7.30;99.90
14359;DHT22;7263;49.418;11.064;2023-04-15T16:36:06;7.30;99.90
14359;DHT22;7263;49.418;11.064;2023-04-15T16:38:33;7.30;99.90